createdAt,value
2017-12-28T00:01:10.294Z,16.67
2017-12-28T00:03:38.244Z,15.77
2017-12-28T00:06:06.120Z,17.00
2017-12-28T00:08:34.048Z,16.73
2017-12-28T00:11:01.935Z,17.40
2017-12-28T00:13:29.936Z,17.50
2017-12-28T00:15:57.816Z,18.20
2017-12-28T00:18:25.740Z,18.73
2017-12-28T00:20:53.628Z,17.75
2017-12-28T00:23:21.626Z,19.27
2017-12-28T00:25:50.299Z,21.42
2017-12-28T00:28:19.024Z,20.75
2017-12-28T00:30:46.910Z,22.45
2017-12-28T00:33:14.775Z,25.60
2017-12-28T00:35:42.749Z,24.80
2017-12-28T00:38:10.685Z,26.02
2017-12-28T00:40:38.615Z,26.67
2017-12-28T00:43:06.493Z,29.35
2017-12-28T00:45:34.423Z,27.58
2017-12-28T00:48:02.320Z,31.62
2017-12-28T00:50:30.348Z,29.10
2017-12-28T00:52:58.207Z,29.80
2017-12-28T00:55:26.137Z,27.35
2017-12-28T00:57:54.007Z,25.10
2017-12-28T01:00:21.949Z,22.77
2017-12-28T01:02:49.877Z,21.12
2017-12-28T01:05:17.819Z,17.37
2017-12-28T01:07:46.590Z,19.40
2017-12-28T01:10:14.532Z,16.20
2017-12-28T01:12:42.649Z,13.80
2017-12-28T01:15:10.578Z,12.27
2017-12-28T01:17:38.463Z,14.90
2017-12-28T01:20:06.400Z,13.85
2017-12-28T01:22:34.278Z,12.85
2017-12-28T01:25:02.268Z,13.27
2017-12-28T01:27:30.145Z,11.40
2017-12-28T01:29:58.072Z,11.60
2017-12-28T01:32:25.952Z,12.05
2017-12-28T01:34:53.929Z,10.68
2017-12-28T01:37:21.940Z,12.48
2017-12-28T01:39:49.852Z,11.95
2017-12-28T01:42:17.771Z,11.80
2017-12-28T01:44:45.748Z,9.63
2017-12-28T01:47:13.683Z,11.68
2017-12-28T01:49:41.624Z,12.25
2017-12-28T01:52:09.548Z,11.57
2017-12-28T01:54:37.435Z,11.20
2017-12-28T01:57:06.136Z,13.10
2017-12-28T01:59:34.013Z,11.90
2017-12-28T02:02:01.943Z,11.98
2017-12-28T02:04:29.826Z,10.60
2017-12-28T02:06:59.784Z,11.32
2017-12-28T02:09:27.681Z,11.05
2017-12-28T02:11:55.615Z,11.00
2017-12-28T02:14:23.487Z,10.98
2017-12-28T02:16:51.420Z,11.18
2017-12-28T02:19:20.093Z,11.90
2017-12-28T02:21:48.055Z,10.90
2017-12-28T02:24:15.940Z,10.65
2017-12-28T02:26:44.629Z,10.68
2017-12-28T02:29:13.277Z,10.50
2017-12-28T02:31:41.210Z,9.90
2017-12-28T02:34:09.075Z,8.70
2017-12-28T02:36:41.851Z,9.27
2017-12-28T02:39:09.753Z,8.50
2017-12-28T02:41:37.694Z,8.88
2017-12-28T02:44:05.570Z,8.90
2017-12-28T02:46:33.441Z,8.10
2017-12-28T02:49:01.364Z,7.30
2017-12-28T02:51:29.896Z,8.27
2017-12-28T02:53:57.846Z,8.57
2017-12-28T02:56:25.730Z,8.95
2017-12-28T02:58:53.647Z,9.70
2017-12-28T03:01:21.523Z,8.52
2017-12-28T03:03:49.447Z,9.13
2017-12-28T03:06:17.446Z,9.98
2017-12-28T03:08:45.374Z,9.00
2017-12-28T03:11:13.248Z,8.93
2017-12-28T03:13:41.176Z,9.35
2017-12-28T03:16:09.052Z,10.20
2017-12-28T03:18:36.973Z,9.52
2017-12-28T03:21:04.840Z,9.40
2017-12-28T03:23:32.772Z,8.95
2017-12-28T03:26:00.705Z,7.82
2017-12-28T03:28:28.693Z,7.90
2017-12-28T03:30:56.632Z,8.60
2017-12-28T03:33:24.563Z,8.75
2017-12-28T03:35:52.427Z,6.53
2017-12-28T03:38:20.413Z,7.87
2017-12-28T03:40:48.297Z,7.68
2017-12-28T03:43:16.228Z,6.85
2017-12-28T03:45:44.135Z,6.65
2017-12-28T03:48:12.072Z,8.73
2017-12-28T03:50:39.961Z,9.30
2017-12-28T03:53:07.959Z,10.60
2017-12-28T03:55:35.895Z,10.43
2017-12-28T03:58:03.912Z,8.98
2017-12-28T04:00:31.831Z,8.30
2017-12-28T04:02:59.700Z,9.35
2017-12-28T04:05:27.632Z,8.77
2017-12-28T04:07:55.540Z,9.45
2017-12-28T04:10:24.225Z,10.00
2017-12-28T04:12:52.093Z,11.40
2017-12-28T04:15:20.057Z,11.07
2017-12-28T04:17:47.927Z,10.90
2017-12-28T04:20:15.868Z,11.18
2017-12-28T04:22:43.789Z,10.27
2017-12-28T04:25:11.719Z,10.38
2017-12-28T04:27:40.764Z,9.88
2017-12-28T04:30:08.704Z,10.07
2017-12-28T04:32:36.569Z,10.75
2017-12-28T04:35:04.509Z,11.85
2017-12-28T04:37:32.457Z,11.43
2017-12-28T04:40:00.382Z,10.02
2017-12-28T04:42:28.266Z,10.57
2017-12-28T04:44:56.196Z,11.18
2017-12-28T04:47:24.065Z,12.37
2017-12-28T04:49:52.003Z,13.25
2017-12-28T04:52:19.957Z,14.02
2017-12-28T04:54:47.844Z,13.88
2017-12-28T04:57:15.851Z,14.02
2017-12-28T04:59:43.763Z,12.95
2017-12-28T05:02:11.691Z,13.90
2017-12-28T05:04:39.559Z,12.48
2017-12-28T05:07:07.464Z,13.02
2017-12-28T05:09:35.353Z,12.88
2017-12-28T05:12:03.277Z,12.95
2017-12-28T05:14:31.144Z,12.10
2017-12-28T05:16:59.123Z,13.75
2017-12-28T05:19:27.756Z,12.10
2017-12-28T05:21:55.676Z,14.55
2017-12-28T05:24:23.538Z,12.25
2017-12-28T05:26:54.877Z,13.48
2017-12-28T05:29:22.743Z,13.10
2017-12-28T05:31:50.661Z,11.55
2017-12-28T05:34:18.568Z,12.10
2017-12-28T05:36:47.283Z,10.38
2017-12-28T05:39:15.141Z,11.15
2017-12-28T05:41:43.066Z,10.85
2017-12-28T05:44:11.046Z,11.23
2017-12-28T05:46:39.033Z,11.25
2017-12-28T05:49:06.936Z,9.70
2017-12-28T05:51:34.927Z,11.30
2017-12-28T05:54:03.104Z,10.63
2017-12-28T05:56:31.100Z,10.05
2017-12-28T05:58:59.089Z,10.05
2017-12-28T06:01:26.979Z,10.43
2017-12-28T06:03:54.910Z,9.90
2017-12-28T06:06:22.798Z,9.85
2017-12-28T06:08:50.732Z,11.02
2017-12-28T06:11:18.608Z,8.82
2017-12-28T06:13:46.548Z,8.57
2017-12-28T06:16:14.417Z,8.70
2017-12-28T06:18:42.355Z,9.05
2017-12-28T06:21:10.303Z,9.32
2017-12-28T06:23:38.998Z,9.52
2017-12-28T06:26:07.655Z,8.63
2017-12-28T06:28:35.575Z,9.65
2017-12-28T06:31:03.461Z,8.88
2017-12-28T06:33:31.403Z,7.32
2017-12-28T06:35:59.280Z,7.45
2017-12-28T06:38:27.203Z,6.62
2017-12-28T06:40:55.066Z,7.40
2017-12-28T06:43:22.984Z,7.37
2017-12-28T06:45:50.888Z,7.75
2017-12-28T06:48:18.859Z,8.05
2017-12-28T06:50:46.732Z,7.20
2017-12-28T06:53:14.635Z,7.10
2017-12-28T06:55:43.250Z,8.80
2017-12-28T06:58:11.160Z,8.13
2017-12-28T07:00:39.015Z,9.55
2017-12-28T07:03:06.952Z,10.45
2017-12-28T07:05:34.823Z,9.48
2017-12-28T07:08:02.705Z,11.02
2017-12-28T07:10:30.630Z,11.70
2017-12-28T07:12:59.256Z,11.30
2017-12-28T07:15:27.172Z,10.40
2017-12-28T07:17:58.692Z,10.57
2017-12-28T07:20:26.606Z,11.45
2017-12-28T07:22:54.483Z,11.23
2017-12-28T07:25:22.403Z,12.13
2017-12-28T07:27:50.271Z,12.00
2017-12-28T07:30:18.189Z,13.20
2017-12-28T07:32:46.824Z,14.57
2017-12-28T07:35:14.740Z,12.75
2017-12-28T07:37:42.600Z,13.35
2017-12-28T07:40:12.443Z,13.00
2017-12-28T07:42:41.286Z,11.85
2017-12-28T07:45:09.202Z,11.15
2017-12-28T07:47:38.797Z,12.73
2017-12-28T07:50:06.957Z,13.38
2017-12-28T07:52:35.597Z,13.80
2017-12-28T07:55:03.588Z,15.20
2017-12-28T07:57:31.458Z,19.15
2017-12-28T07:59:59.432Z,17.45
2017-12-28T08:02:27.308Z,17.27
2017-12-28T08:04:55.228Z,16.17
2017-12-28T08:07:23.235Z,17.92
2017-12-28T08:09:51.098Z,17.50
2017-12-28T08:12:19.031Z,18.02
2017-12-28T08:14:46.897Z,16.58
2017-12-28T08:17:14.956Z,16.83
2017-12-28T08:19:42.811Z,15.88
2017-12-28T08:22:10.759Z,15.23
2017-12-28T08:24:38.635Z,13.38
2017-12-28T08:27:06.650Z,14.57
2017-12-28T08:29:34.585Z,11.77
2017-12-28T08:32:02.516Z,9.70
2017-12-28T08:34:30.407Z,10.05
2017-12-28T08:36:59.531Z,9.07
2017-12-28T08:39:27.413Z,8.88
2017-12-28T08:41:55.340Z,9.10
2017-12-28T08:44:23.203Z,8.15
2017-12-28T08:46:51.138Z,7.55
2017-12-28T08:49:19.037Z,6.87
2017-12-28T08:51:46.951Z,5.97
2017-12-28T08:54:14.824Z,7.90
2017-12-28T08:56:44.862Z,8.35
2017-12-28T08:59:13.939Z,9.27
2017-12-28T09:01:43.230Z,10.43
2017-12-28T09:04:12.521Z,11.00
2017-12-28T09:06:41.243Z,10.68
2017-12-28T09:09:09.123Z,11.95
2017-12-28T09:11:37.406Z,10.60
2017-12-28T09:14:05.296Z,12.25
2017-12-28T09:16:34.876Z,13.05
2017-12-28T09:19:02.816Z,14.70
2017-12-28T09:21:30.698Z,13.27
2017-12-28T09:23:58.629Z,12.10
2017-12-28T09:26:26.541Z,13.57
2017-12-28T09:28:54.900Z,11.98
2017-12-28T09:31:22.758Z,13.13
2017-12-28T09:33:50.711Z,12.15
2017-12-28T09:36:18.603Z,13.30
2017-12-28T09:38:46.605Z,12.52
2017-12-28T09:41:14.486Z,14.15
2017-12-28T09:43:42.431Z,13.23
2017-12-28T09:46:10.428Z,13.60
2017-12-28T09:48:38.365Z,12.48
2017-12-28T09:51:06.224Z,11.93
2017-12-28T09:53:34.127Z,12.43
2017-12-28T09:56:01.991Z,12.98
2017-12-28T09:58:29.923Z,10.80
2017-12-28T10:00:57.814Z,10.32
2017-12-28T10:03:25.734Z,10.50
2017-12-28T10:05:53.616Z,9.55
2017-12-28T10:08:21.543Z,9.52
2017-12-28T10:10:49.431Z,9.18
2017-12-28T10:13:17.362Z,9.93
2017-12-28T10:15:45.267Z,11.25
2017-12-28T10:18:13.211Z,9.40
2017-12-28T10:20:41.088Z,9.35
2017-12-28T10:23:08.963Z,9.60
2017-12-28T10:25:36.905Z,10.98
2017-12-28T10:28:04.781Z,9.90
2017-12-28T10:30:32.699Z,10.10
2017-12-28T10:33:01.365Z,10.25
2017-12-28T10:35:29.297Z,9.68
2017-12-28T10:37:57.196Z,10.40
2017-12-28T10:40:25.126Z,9.93
2017-12-28T10:42:53.090Z,9.75
2017-12-28T10:45:22.057Z,10.68
2017-12-28T10:47:50.692Z,11.52
2017-12-28T10:50:18.619Z,10.15
2017-12-28T10:52:47.712Z,9.70
2017-12-28T10:55:16.338Z,10.00
2017-12-28T10:57:44.694Z,9.38
2017-12-28T11:00:12.616Z,11.43
2017-12-28T11:02:40.496Z,10.98
2017-12-28T11:05:08.479Z,9.32
2017-12-28T11:07:36.522Z,8.68
2017-12-28T11:10:04.788Z,9.00
2017-12-28T11:12:32.671Z,8.30
2017-12-28T11:15:00.572Z,7.30
2017-12-28T11:17:29.251Z,8.30
2017-12-28T11:19:57.187Z,8.40
2017-12-28T11:22:25.061Z,7.97
2017-12-28T11:24:52.979Z,6.57
2017-12-28T11:27:24.786Z,8.10
2017-12-28T11:29:52.723Z,7.32
2017-12-28T11:32:20.592Z,6.78
2017-12-28T11:34:48.466Z,7.37
2017-12-28T11:37:16.509Z,7.30
2017-12-28T11:39:45.168Z,6.28
2017-12-28T11:42:13.070Z,6.32
2017-12-28T11:44:40.949Z,6.32
2017-12-28T11:47:08.918Z,6.45
2017-12-28T11:49:36.803Z,6.53
2017-12-28T11:52:06.611Z,6.80
2017-12-28T11:54:40.045Z,7.32
2017-12-28T11:57:13.907Z,6.30
2017-12-28T11:59:51.756Z,7.80
2017-12-28T12:05:29.278Z,5.32
2017-12-28T12:08:02.815Z,7.82
2017-12-28T12:10:30.789Z,6.62
2017-12-28T12:12:58.739Z,6.75
2017-12-28T12:15:26.669Z,4.57
2017-12-28T12:18:03.037Z,3.60
2017-12-28T12:20:31.776Z,5.50
2017-12-28T12:22:59.838Z,4.50
2017-12-28T12:25:28.517Z,5.15
2017-12-28T12:27:57.278Z,4.53
2017-12-28T12:30:25.202Z,4.80
2017-12-28T12:32:53.179Z,4.03
2017-12-28T12:35:21.123Z,5.85
2017-12-28T12:37:49.890Z,4.60
2017-12-28T12:40:17.801Z,3.90
2017-12-28T12:42:45.763Z,3.70
2017-12-28T12:45:13.688Z,4.75
2017-12-28T12:47:41.979Z,3.55
2017-12-28T12:50:09.914Z,3.70
2017-12-28T12:52:37.925Z,2.80
2017-12-28T12:55:06.632Z,4.15
2017-12-28T12:57:34.612Z,3.90
2017-12-28T13:00:02.973Z,3.60
2017-12-28T13:02:31.084Z,2.95
2017-12-28T13:04:59.031Z,3.65
2017-12-28T13:07:27.043Z,3.70
2017-12-28T13:09:58.568Z,3.37
2017-12-28T13:12:27.420Z,2.87
2017-12-28T13:14:55.364Z,3.00
2017-12-28T13:17:27.333Z,2.95
2017-12-28T13:19:55.338Z,3.50
2017-12-28T13:22:25.783Z,4.07
2017-12-28T13:24:54.720Z,2.95
2017-12-28T13:27:22.650Z,3.20
2017-12-28T13:29:50.706Z,2.60
2017-12-28T13:32:19.624Z,3.08
2017-12-28T13:34:47.602Z,2.97
2017-12-28T13:37:15.590Z,3.85
2017-12-28T13:39:43.580Z,2.72
2017-12-28T13:42:11.489Z,2.17
2017-12-28T13:44:39.467Z,2.70
2017-12-28T13:47:07.383Z,2.67
2017-12-28T13:49:35.338Z,2.90
2017-12-28T13:52:03.281Z,5.82
2017-12-28T13:54:31.601Z,2.65
2017-12-28T13:56:59.477Z,3.17
2017-12-28T13:59:27.402Z,3.60
2017-12-28T14:01:55.352Z,3.58
2017-12-28T14:04:23.283Z,2.97
2017-12-28T14:06:53.297Z,3.00
2017-12-28T14:09:21.224Z,3.33
2017-12-28T14:11:49.093Z,2.87
2017-12-28T14:14:17.779Z,2.75
2017-12-28T14:16:45.708Z,2.92
2017-12-28T14:19:14.416Z,3.40
2017-12-28T14:21:42.302Z,3.40
2017-12-28T14:24:10.186Z,3.42
2017-12-28T14:26:38.121Z,3.00
2017-12-28T14:29:07.991Z,3.37
2017-12-28T14:31:35.942Z,3.00
2017-12-28T14:34:07.507Z,2.62
2017-12-28T14:36:35.678Z,2.40
2017-12-28T14:39:03.743Z,2.75
2017-12-28T14:41:31.720Z,3.30
2017-12-28T14:44:01.361Z,3.75
2017-12-28T14:46:29.324Z,3.92
2017-12-28T14:48:57.204Z,3.08
2017-12-28T14:51:25.136Z,2.75
2017-12-28T14:53:53.016Z,2.78
2017-12-28T14:56:20.990Z,2.87
2017-12-28T14:58:48.899Z,3.00
2017-12-28T15:01:17.618Z,2.87
2017-12-28T15:03:45.507Z,3.17
2017-12-28T15:06:15.687Z,3.50
2017-12-28T15:08:43.592Z,2.65
2017-12-28T15:11:11.531Z,3.00
2017-12-28T15:13:39.456Z,2.50
2017-12-28T15:16:07.450Z,3.42
2017-12-28T15:18:35.356Z,3.22
2017-12-28T15:21:03.679Z,3.08
2017-12-28T15:23:32.360Z,3.10
2017-12-28T15:26:00.300Z,2.67
2017-12-28T15:28:28.192Z,2.65
2017-12-28T15:30:56.096Z,3.45
2017-12-28T15:33:24.037Z,3.17
2017-12-28T15:35:52.107Z,3.20
2017-12-28T15:38:20.093Z,3.50
2017-12-28T15:40:47.976Z,4.22
2017-12-28T15:43:16.684Z,37.20
2017-12-28T15:45:44.548Z,22.35
2017-12-28T15:48:12.476Z,7.95
2017-12-28T15:50:40.343Z,6.57
2017-12-28T15:53:08.336Z,3.40
2017-12-28T15:55:36.979Z,4.72
2017-12-28T15:58:09.717Z,2.72
2017-12-28T16:00:37.600Z,2.72
2017-12-28T16:03:05.514Z,2.92
2017-12-28T16:05:33.388Z,2.70
2017-12-28T16:08:01.305Z,3.20
2017-12-28T16:10:29.957Z,2.45
2017-12-28T16:12:57.880Z,1.73
2017-12-28T16:15:25.757Z,3.10
2017-12-28T16:17:53.688Z,2.35
2017-12-28T16:20:21.568Z,2.40
2017-12-28T16:22:49.489Z,1.95
2017-12-28T16:25:17.369Z,2.03
2017-12-28T16:27:45.354Z,2.90
2017-12-28T16:30:14.012Z,2.40
2017-12-28T16:32:41.951Z,2.35
2017-12-28T16:35:09.824Z,2.70
2017-12-28T16:37:37.759Z,2.50
2017-12-28T16:40:05.623Z,2.00
2017-12-28T16:42:33.492Z,1.80
2017-12-28T16:45:01.416Z,2.00
2017-12-28T16:47:29.335Z,2.10
2017-12-28T16:49:57.244Z,2.90
2017-12-28T16:52:25.128Z,2.10
2017-12-28T16:54:53.058Z,1.90
2017-12-28T16:57:25.856Z,2.70
2017-12-28T16:59:53.770Z,2.15
2017-12-28T17:02:21.636Z,2.37
2017-12-28T17:04:49.582Z,2.80
2017-12-28T17:07:17.454Z,2.70
2017-12-28T17:09:45.368Z,2.55
2017-12-28T17:12:13.258Z,3.22
2017-12-28T17:14:41.175Z,2.20
2017-12-28T17:17:09.049Z,2.85
2017-12-28T17:19:36.970Z,2.50
2017-12-28T17:22:04.880Z,2.35
2017-12-28T17:24:32.797Z,2.47
2017-12-28T17:27:01.820Z,2.50
2017-12-28T17:29:29.732Z,2.58
2017-12-28T17:31:57.599Z,2.05
2017-12-28T17:34:25.574Z,2.80
2017-12-28T17:36:53.433Z,2.60
2017-12-28T17:39:21.376Z,2.50
2017-12-28T17:41:49.246Z,2.45
2017-12-28T17:44:17.136Z,1.95
2017-12-28T17:46:45.841Z,2.50
2017-12-28T17:49:13.721Z,1.95
2017-12-28T17:51:41.659Z,2.28
2017-12-28T17:54:14.643Z,2.33
2017-12-28T17:56:46.430Z,2.75
2017-12-28T17:59:14.353Z,2.08
2017-12-28T18:01:42.310Z,2.20
2017-12-28T18:04:10.204Z,2.05
2017-12-28T18:06:38.154Z,2.10
2017-12-28T18:09:06.048Z,2.10
2017-12-28T18:11:34.755Z,2.47
2017-12-28T18:14:02.699Z,2.65
2017-12-28T18:16:30.634Z,2.30
2017-12-28T18:18:58.524Z,1.80
2017-12-28T18:21:26.472Z,2.45
2017-12-28T18:23:54.357Z,2.60
2017-12-28T18:26:22.376Z,1.60
2017-12-28T18:28:50.309Z,2.40
2017-12-28T18:31:18.242Z,2.33
2017-12-28T18:33:46.132Z,2.55
2017-12-28T18:36:14.075Z,2.08
2017-12-28T18:38:41.952Z,1.95
2017-12-28T18:41:09.887Z,1.80
2017-12-28T18:43:37.777Z,2.10
2017-12-28T18:46:05.714Z,2.65
2017-12-28T18:48:34.341Z,2.20
2017-12-28T18:51:02.267Z,2.70
2017-12-28T18:53:30.145Z,1.80
2017-12-28T18:55:58.093Z,1.65
2017-12-28T18:58:26.019Z,2.03
2017-12-28T19:00:53.893Z,1.92
2017-12-28T19:03:21.877Z,2.55
2017-12-28T19:05:49.763Z,2.30
2017-12-28T19:08:17.681Z,2.40
2017-12-28T19:10:45.557Z,2.10
2017-12-28T19:13:13.477Z,2.75
2017-12-28T19:15:41.361Z,2.95
2017-12-28T19:18:09.438Z,2.05
2017-12-28T19:20:37.312Z,2.62
2017-12-28T19:23:05.236Z,2.53
2017-12-28T19:25:33.105Z,3.15
2017-12-28T19:28:01.030Z,3.22
2017-12-28T19:30:28.931Z,2.53
2017-12-28T19:32:56.851Z,2.45
2017-12-28T19:35:24.735Z,2.65
2017-12-28T19:37:52.672Z,2.40
2017-12-28T19:40:20.538Z,2.15
2017-12-28T19:42:48.454Z,2.10
2017-12-28T19:45:16.340Z,2.85
2017-12-28T19:47:47.837Z,2.60
2017-12-28T19:50:16.479Z,3.00
2017-12-28T19:52:44.407Z,2.97
2017-12-28T19:55:12.284Z,1.87
2017-12-28T19:57:40.205Z,3.47
2017-12-28T20:00:08.099Z,3.20
2017-12-28T20:02:36.021Z,2.72
2017-12-28T20:05:03.929Z,3.00
2017-12-28T20:07:32.731Z,2.67
2017-12-28T20:10:01.620Z,3.40
2017-12-28T20:12:29.566Z,3.65
2017-12-28T20:14:57.443Z,2.80
2017-12-28T20:17:26.556Z,3.30
2017-12-28T20:19:55.607Z,4.03
2017-12-28T20:22:23.539Z,3.37
2017-12-28T20:24:51.423Z,3.35
2017-12-28T20:27:19.395Z,2.92
2017-12-28T20:29:47.267Z,3.05
2017-12-28T20:32:15.261Z,3.30
2017-12-28T20:34:43.159Z,3.40
2017-12-28T20:37:11.861Z,3.47
2017-12-28T20:39:39.855Z,2.85
2017-12-28T20:42:07.725Z,3.97
2017-12-28T20:44:35.647Z,3.33
2017-12-28T20:47:03.712Z,2.83
2017-12-28T20:49:31.688Z,2.87
2017-12-28T20:52:00.453Z,3.45
2017-12-28T20:54:29.117Z,3.05
2017-12-28T20:56:57.018Z,3.37
2017-12-28T20:59:24.946Z,2.83
2017-12-28T21:01:52.856Z,3.05
2017-12-28T21:04:20.831Z,3.10
2017-12-28T21:06:48.735Z,2.83
2017-12-28T21:09:16.668Z,3.08
2017-12-28T21:11:44.531Z,2.95
2017-12-28T21:14:12.447Z,2.78
2017-12-28T21:16:40.453Z,3.20
2017-12-28T21:19:08.436Z,2.80
2017-12-28T21:21:36.344Z,3.42
2017-12-28T21:24:04.274Z,2.45
2017-12-28T21:26:32.176Z,2.55
2017-12-28T21:29:00.877Z,2.75
2017-12-28T21:31:28.741Z,3.20
2017-12-28T21:33:56.673Z,3.40
2017-12-28T21:36:24.553Z,3.25
2017-12-28T21:38:52.482Z,2.55
2017-12-28T21:41:20.353Z,5.05
2017-12-28T21:43:48.283Z,2.70
2017-12-28T21:46:16.421Z,3.55
2017-12-28T21:48:44.335Z,3.60
2017-12-28T21:51:12.262Z,3.47
2017-12-28T21:53:40.146Z,3.03
2017-12-28T21:56:08.074Z,2.90
2017-12-28T21:58:35.949Z,3.20
2017-12-28T22:01:03.894Z,2.72
2017-12-28T22:03:31.767Z,2.83
2017-12-28T22:06:00.489Z,2.87
2017-12-28T22:08:28.361Z,4.05
2017-12-28T22:10:56.388Z,3.00
2017-12-28T22:13:24.260Z,3.35
2017-12-28T22:15:52.433Z,2.95
2017-12-28T22:18:20.314Z,3.35
2017-12-28T22:20:48.231Z,3.55
2017-12-28T22:23:16.872Z,3.10
2017-12-28T22:25:44.796Z,3.37
2017-12-28T22:28:12.694Z,3.00
2017-12-28T22:30:40.609Z,3.20
2017-12-28T22:33:11.205Z,3.67
2017-12-28T22:35:39.193Z,3.65
2017-12-28T22:38:07.060Z,4.47
2017-12-28T22:40:34.971Z,3.17
2017-12-28T22:43:02.848Z,4.00
2017-12-28T22:45:30.816Z,3.53
2017-12-28T22:47:58.716Z,4.28
2017-12-28T22:50:26.604Z,3.22
2017-12-28T22:52:54.546Z,3.28
2017-12-28T22:55:22.866Z,3.08
2017-12-28T22:57:51.810Z,3.30
2017-12-28T23:00:19.718Z,3.12
2017-12-28T23:02:48.793Z,3.60
2017-12-28T23:05:16.674Z,4.57
2017-12-28T23:07:44.693Z,3.25
2017-12-28T23:10:12.583Z,4.15
2017-12-28T23:12:40.512Z,4.30
2017-12-28T23:15:08.408Z,3.60
2017-12-28T23:17:36.366Z,4.28
2017-12-28T23:20:04.303Z,3.28
2017-12-28T23:22:32.239Z,3.00
2017-12-28T23:25:00.186Z,4.12
2017-12-28T23:27:28.278Z,3.40
2017-12-28T23:29:56.330Z,3.80
2017-12-28T23:32:25.802Z,3.60
2017-12-28T23:34:53.741Z,2.67
2017-12-28T23:37:21.691Z,4.03
2017-12-28T23:39:49.577Z,3.37
2017-12-28T23:42:17.525Z,3.40
2017-12-28T23:44:46.183Z,3.53
2017-12-28T23:47:14.128Z,3.15
2017-12-28T23:49:42.036Z,3.70
2017-12-28T23:52:09.995Z,3.08
2017-12-28T23:54:37.925Z,3.12
2017-12-28T23:57:06.053Z,2.92
2017-12-28T23:59:33.993Z,3.42
